createdAt,value
2018-10-06T00:03:30.630Z,97.90
2018-10-06T00:08:34.378Z,98.00
2018-10-06T00:13:37.971Z,97.90
2018-10-06T00:18:41.570Z,98.20
2018-10-06T00:23:45.271Z,98.30
2018-10-06T00:28:48.870Z,98.30
2018-10-06T00:33:52.482Z,98.40
2018-10-06T00:38:56.069Z,98.40
2018-10-06T00:43:59.661Z,98.70
2018-10-06T00:49:03.347Z,98.60
2018-10-06T00:54:07.094Z,98.90
2018-10-06T00:59:10.686Z,99.00
2018-10-06T01:04:14.270Z,99.10
2018-10-06T01:09:17.867Z,99.20
2018-10-06T01:14:21.459Z,99.10
2018-10-06T01:19:25.056Z,99.20
2018-10-06T01:24:28.648Z,99.40
2018-10-06T01:29:33.333Z,99.30
2018-10-06T01:34:36.930Z,99.60
2018-10-06T01:39:40.530Z,99.70
2018-10-06T01:44:44.145Z,99.70
2018-10-06T01:49:47.765Z,99.90
2018-10-06T01:54:51.345Z,99.90
2018-10-06T01:59:54.931Z,99.90
2018-10-06T02:04:58.617Z,99.90
2018-10-06T02:10:02.210Z,99.90
2018-10-06T02:15:05.811Z,99.90
2018-10-06T02:20:09.705Z,99.90
2018-10-06T02:25:13.306Z,99.90
2018-10-06T02:30:17.009Z,99.90
2018-10-06T02:35:20.502Z,99.90
2018-10-06T02:40:24.094Z,99.90
2018-10-06T02:45:27.681Z,99.90
2018-10-06T02:50:31.303Z,99.90
2018-10-06T02:55:34.904Z,99.90
2018-10-06T03:00:38.584Z,99.90
2018-10-06T03:05:42.231Z,99.90
2018-10-06T03:10:45.822Z,99.90
2018-10-06T03:15:49.475Z,99.90
2018-10-06T03:20:53.069Z,99.90
2018-10-06T03:25:56.661Z,99.90
2018-10-06T03:31:00.259Z,99.90
2018-10-06T03:36:03.936Z,99.90
2018-10-06T03:41:07.529Z,99.90
2018-10-06T03:46:11.710Z,99.90
2018-10-06T03:51:15.315Z,99.90
2018-10-06T03:56:18.915Z,99.90
2018-10-06T04:01:22.536Z,99.90
2018-10-06T04:06:26.136Z,99.90
2018-10-06T04:11:30.728Z,99.90
2018-10-06T04:16:34.327Z,99.90
2018-10-06T04:21:42.310Z,99.90
2018-10-06T04:26:45.906Z,99.90
2018-10-06T04:31:49.508Z,99.90
2018-10-06T04:36:53.101Z,99.90
2018-10-06T04:41:56.710Z,99.90
2018-10-06T04:47:00.314Z,99.90
2018-10-06T04:52:03.962Z,99.90
2018-10-06T04:57:07.567Z,99.90
2018-10-06T05:02:11.142Z,99.90
2018-10-06T05:07:14.750Z,99.90
2018-10-06T05:12:18.342Z,99.90
2018-10-06T05:17:21.938Z,99.90
2018-10-06T05:22:26.323Z,99.90
2018-10-06T05:27:29.944Z,99.90
2018-10-06T05:32:33.535Z,99.90
2018-10-06T05:37:37.132Z,99.90
2018-10-06T05:42:40.731Z,99.90
2018-10-06T05:47:44.352Z,99.90
2018-10-06T05:52:47.971Z,99.90
2018-10-06T05:57:51.600Z,99.90
2018-10-06T06:02:55.214Z,99.90
2018-10-06T06:07:58.807Z,99.90
2018-10-06T06:13:02.427Z,99.90
2018-10-06T06:18:06.015Z,99.90
2018-10-06T06:23:09.615Z,99.90
2018-10-06T06:28:13.211Z,99.90
2018-10-06T06:33:16.799Z,99.90
2018-10-06T06:38:20.456Z,99.90
2018-10-06T06:43:24.043Z,99.90
2018-10-06T06:48:27.754Z,99.90
2018-10-06T06:53:31.367Z,99.90
2018-10-06T06:58:35.020Z,99.90
2018-10-06T07:03:38.604Z,99.90
2018-10-06T07:08:42.299Z,99.90
2018-10-06T07:13:46.697Z,99.90
2018-10-06T07:18:51.462Z,99.90
2018-10-06T07:23:55.705Z,99.80
2018-10-06T07:28:59.295Z,99.90
2018-10-06T07:34:03.851Z,99.50
2018-10-06T07:39:07.479Z,99.20
2018-10-06T07:44:11.098Z,99.50
2018-10-06T07:49:14.711Z,98.70
2018-10-06T07:54:18.322Z,98.20
2018-10-06T07:59:22.052Z,97.80
2018-10-06T08:04:25.629Z,97.20
2018-10-06T08:09:29.231Z,97.00
2018-10-06T08:14:32.927Z,96.60
2018-10-06T08:19:36.558Z,96.40
2018-10-06T08:24:40.191Z,95.60
2018-10-06T08:29:43.886Z,95.20
2018-10-06T08:34:47.593Z,94.50
2018-10-06T08:39:51.195Z,94.00
2018-10-06T08:44:54.823Z,93.80
2018-10-06T08:49:58.434Z,93.50
2018-10-06T08:55:02.044Z,92.90
2018-10-06T09:00:06.010Z,92.90
2018-10-06T09:05:09.617Z,92.60
2018-10-06T09:10:13.270Z,92.40
2018-10-06T09:15:16.932Z,92.70
2018-10-06T09:20:20.519Z,91.90
2018-10-06T09:25:24.179Z,91.20
2018-10-06T09:30:27.810Z,91.10
2018-10-06T09:35:31.423Z,91.60
2018-10-06T09:40:35.050Z,90.50
2018-10-06T09:45:38.763Z,91.10
2018-10-06T09:50:42.478Z,86.80
2018-10-06T09:55:46.183Z,85.10
2018-10-06T10:00:55.146Z,86.10
2018-10-06T10:05:58.847Z,83.20
2018-10-06T10:11:02.460Z,82.80
2018-10-06T10:16:06.452Z,82.70
2018-10-06T10:21:10.066Z,84.20
2018-10-06T10:26:13.691Z,84.70
2018-10-06T10:31:17.577Z,79.70
2018-10-06T10:36:21.266Z,81.00
2018-10-06T10:41:24.874Z,81.10
2018-10-06T10:46:28.482Z,80.90
2018-10-06T10:51:32.094Z,80.70
2018-10-06T10:56:35.714Z,80.30
2018-10-06T11:01:39.298Z,76.20
2018-10-06T11:06:42.889Z,78.30
2018-10-06T11:11:46.494Z,74.90
2018-10-06T11:16:50.106Z,75.20
2018-10-06T11:21:53.702Z,75.20
2018-10-06T11:26:57.310Z,77.60
2018-10-06T11:32:00.933Z,74.20
2018-10-06T11:37:04.534Z,72.60
2018-10-06T11:42:08.142Z,72.40
2018-10-06T11:47:11.774Z,74.90
2018-10-06T11:52:15.363Z,74.90
2018-10-06T11:57:18.966Z,72.60
2018-10-06T12:02:22.583Z,73.80
2018-10-06T12:07:26.182Z,75.70
2018-10-06T12:12:29.799Z,75.30
2018-10-06T12:17:33.410Z,74.80
2018-10-06T12:22:37.030Z,76.20
2018-10-06T12:27:40.630Z,76.90
2018-10-06T12:32:44.267Z,74.80
2018-10-06T12:37:47.914Z,74.20
2018-10-06T12:42:51.518Z,73.40
2018-10-06T12:47:55.131Z,74.00
2018-10-06T12:52:58.761Z,71.70
2018-10-06T12:58:02.383Z,71.90
2018-10-06T13:03:06.023Z,72.60
2018-10-06T13:08:09.724Z,72.10
2018-10-06T13:13:13.365Z,72.10
2018-10-06T13:18:16.953Z,71.40
2018-10-06T13:23:20.549Z,72.50
2018-10-06T13:28:24.187Z,70.50
2018-10-06T13:33:27.814Z,69.50
2018-10-06T13:38:31.403Z,70.60
2018-10-06T13:43:35.015Z,69.50
2018-10-06T13:48:38.635Z,70.70
2018-10-06T13:53:42.229Z,70.50
2018-10-06T13:58:45.833Z,69.10
2018-10-06T14:03:49.435Z,68.80
2018-10-06T14:08:53.081Z,68.70
2018-10-06T14:13:56.689Z,67.70
2018-10-06T14:19:00.289Z,67.70
2018-10-06T14:24:03.902Z,68.10
2018-10-06T14:29:07.534Z,67.60
2018-10-06T14:34:11.140Z,67.80
2018-10-06T14:39:14.734Z,65.00
2018-10-06T14:44:18.469Z,63.40
2018-10-06T14:49:21.967Z,61.80
2018-10-06T14:54:25.566Z,63.20
2018-10-06T14:59:29.243Z,64.70
2018-10-06T15:04:32.851Z,64.70
2018-10-06T15:09:36.447Z,64.20
2018-10-06T15:14:40.034Z,64.30
2018-10-06T15:19:43.726Z,64.60
2018-10-06T15:24:47.330Z,66.00
2018-10-06T15:29:50.966Z,68.60
2018-10-06T15:34:54.882Z,68.80
2018-10-06T15:39:58.474Z,69.70
2018-10-06T15:45:02.246Z,71.30
2018-10-06T15:50:06.063Z,72.20
2018-10-06T15:55:09.658Z,73.20
2018-10-06T16:00:13.279Z,75.70
2018-10-06T16:05:16.914Z,75.70
2018-10-06T16:10:20.540Z,78.20
2018-10-06T16:15:24.287Z,80.00
2018-10-06T16:20:27.894Z,81.80
2018-10-06T16:25:31.533Z,83.50
2018-10-06T16:30:35.182Z,84.00
2018-10-06T16:35:38.886Z,84.90
2018-10-06T16:40:42.486Z,86.20
2018-10-06T16:45:46.284Z,87.50
2018-10-06T16:50:49.880Z,89.10
2018-10-06T16:55:53.614Z,90.00
2018-10-06T17:00:57.235Z,90.60
2018-10-06T17:06:00.950Z,91.00
2018-10-06T17:11:04.575Z,91.60
2018-10-06T17:16:08.665Z,92.00
2018-10-06T17:21:12.276Z,92.30
2018-10-06T17:26:16.207Z,92.90
2018-10-06T17:31:19.992Z,93.20
2018-10-06T17:36:23.642Z,93.50
2018-10-06T17:41:27.247Z,94.00
2018-10-06T17:46:30.880Z,94.20
2018-10-06T17:51:34.495Z,94.40
2018-10-06T17:56:38.110Z,94.90
2018-10-06T18:01:41.733Z,95.10
2018-10-06T18:06:45.359Z,95.30
2018-10-06T18:11:48.983Z,95.40
2018-10-06T18:16:52.606Z,95.20
2018-10-06T18:21:56.227Z,95.00
2018-10-06T18:26:59.875Z,94.70
2018-10-06T18:32:03.479Z,94.30
2018-10-06T18:37:07.159Z,94.30
2018-10-06T18:42:10.679Z,94.40
2018-10-06T18:47:14.299Z,94.20
2018-10-06T18:52:17.973Z,94.50
2018-10-06T18:57:21.528Z,94.50
2018-10-06T19:02:25.163Z,94.60
2018-10-06T19:07:28.795Z,95.00
2018-10-06T19:12:33.018Z,95.30
2018-10-06T19:17:37.194Z,95.60
2018-10-06T19:22:40.872Z,95.60
2018-10-06T19:27:44.470Z,95.90
2018-10-06T19:32:48.066Z,95.80
2018-10-06T19:37:51.789Z,95.60
2018-10-06T19:42:55.360Z,95.60
2018-10-06T19:47:58.988Z,95.70
2018-10-06T19:53:02.631Z,95.70
2018-10-06T19:58:06.251Z,95.70
2018-10-06T20:03:09.879Z,95.80
2018-10-06T20:08:13.490Z,95.80
2018-10-06T20:13:17.107Z,96.10
2018-10-06T20:18:20.714Z,96.30
2018-10-06T20:23:24.402Z,96.50
2018-10-06T20:28:28.013Z,96.90
2018-10-06T20:33:31.657Z,96.80
2018-10-06T20:38:35.539Z,97.00
2018-10-06T20:43:39.158Z,97.20
2018-10-06T20:48:42.773Z,97.70
2018-10-06T20:53:46.359Z,97.20
2018-10-06T20:58:50.165Z,97.20
2018-10-06T21:03:53.759Z,97.20
2018-10-06T21:08:57.385Z,97.30
2018-10-06T21:14:00.983Z,97.30
2018-10-06T21:19:05.551Z,97.20
2018-10-06T21:24:09.434Z,97.30
2018-10-06T21:29:13.265Z,97.30
2018-10-06T21:39:26.811Z,97.40
2018-10-06T21:44:30.487Z,97.40
2018-10-06T21:49:34.107Z,97.60
2018-10-06T21:54:37.722Z,97.70
2018-10-06T21:59:42.410Z,97.90
2018-10-06T22:04:46.023Z,97.60
2018-10-06T22:09:49.635Z,97.40
2018-10-06T22:14:53.291Z,97.40
2018-10-06T22:19:56.966Z,96.90
2018-10-06T22:25:00.654Z,97.30
2018-10-06T22:30:05.216Z,97.00
2018-10-06T22:35:08.810Z,97.00
2018-10-06T22:40:12.454Z,96.90
2018-10-06T22:45:17.683Z,97.00
2018-10-06T22:50:21.354Z,97.00
2018-10-06T22:55:24.962Z,97.00
2018-10-06T23:00:28.561Z,97.30
2018-10-06T23:05:32.219Z,97.40
2018-10-06T23:10:35.828Z,97.60
2018-10-06T23:15:39.423Z,97.60
2018-10-06T23:20:43.018Z,97.70
2018-10-06T23:25:46.694Z,98.00
2018-10-06T23:30:50.298Z,98.20
2018-10-06T23:35:53.935Z,98.30
2018-10-06T23:40:57.528Z,98.70
2018-10-06T23:46:01.166Z,98.60
2018-10-06T23:51:04.768Z,98.90
2018-10-06T23:56:08.354Z,98.70
